Time;durP1;ratioP1;P1;durP2;ratioP2;P2;SDS_P1;SDS_P2;PMS_P1;PMS_P2;Temp;Humidity;BMP_temperature;BMP_pressure;BME280_temperature;BME280_humidity;BME280_pressure;Samples;Min_cycle;Max_cycle;Signal;HPM_P1;HPM_P2
2022/02/25 00:00:11;;;;;;;3.07;0.30;;;3.10;91.60;;;;;;5034309;28;20049;-74
2022/02/25 00:02:40;;;;;;;1.95;0.20;;;3.10;91.60;;;;;;5034384;28;20053;-74
2022/02/25 00:05:08;;;;;;;2.13;0.40;;;3.10;91.60;;;;;;5051844;28;20076;-74
2022/02/25 00:07:35;;;;;;;1.42;0.40;;;3.10;91.60;;;;;;5051937;28;20075;-79
2022/02/25 00:10:03;;;;;;;1.13;0.30;;;3.10;91.70;;;;;;5052574;28;20393;-80
2022/02/25 00:12:31;;;;;;;1.05;0.30;;;3.10;91.70;;;;;;5052452;28;20128;-80
2022/02/25 00:14:58;;;;;;;2.43;0.30;;;3.00;91.70;;;;;;5034978;28;20072;-80
2022/02/25 00:17:25;;;;;;;0.93;0.30;;;3.00;91.70;;;;;;5034927;28;20466;-79
2022/02/25 00:19:52;;;;;;;1.63;0.30;;;3.00;91.70;;;;;;5052391;28;20065;-79
2022/02/25 00:22:20;;;;;;;3.30;1.57;;;3.00;91.70;;;;;;5034931;28;21115;-80
2022/02/25 00:24:47;;;;;;;4.90;0.40;;;3.00;91.70;;;;;;5052334;28;20033;-79
2022/02/25 00:27:15;;;;;;;4.13;0.30;;;3.00;91.80;;;;;;5033983;28;20075;-74
2022/02/25 00:29:47;;;;;;;2.22;0.80;;;3.00;91.80;;;;;;5034436;28;20053;-74
2022/02/25 00:32:14;;;;;;;1.70;0.40;;;2.90;91.80;;;;;;5051578;28;20095;-74
2022/02/25 00:34:41;;;;;;;3.60;0.40;;;2.90;91.80;;;;;;5047346;28;20059;-74
2022/02/25 00:37:08;;;;;;;3.27;0.60;;;2.90;91.80;;;;;;5036937;28;20424;-74
2022/02/25 00:39:35;;;;;;;2.10;0.50;;;2.90;91.80;;;;;;5036807;28;20135;-74
2022/02/25 00:42:05;;;;;;;3.17;0.53;;;2.90;91.80;;;;;;5037069;28;20082;-73
2022/02/25 00:44:32;;;;;;;3.87;0.40;;;2.90;91.80;;;;;;5036858;28;20129;-74
2022/02/25 00:47:00;;;;;;;2.00;0.50;;;2.90;91.80;;;;;;5037117;28;20123;-74
2022/02/25 00:49:27;;;;;;;4.03;0.60;;;2.90;91.80;;;;;;5037170;28;20048;-74
2022/02/25 00:51:53;;;;;;;3.63;0.50;;;3.00;91.70;;;;;;5036661;28;20098;-73
2022/02/25 00:54:20;;;;;;;4.03;0.60;;;3.10;91.70;;;;;;5053163;28;20404;-74
2022/02/25 00:56:47;;;;;;;1.13;0.37;;;3.20;91.60;;;;;;5036785;28;20041;-73
2022/02/25 00:59:14;;;;;;;1.63;0.40;;;3.20;91.60;;;;;;5053138;28;20496;-73
2022/02/25 01:01:42;;;;;;;2.15;0.40;;;3.30;91.50;;;;;;5037335;28;20052;-74
2022/02/25 01:04:11;;;;;;;2.28;0.57;;;3.30;91.50;;;;;;5037193;28;20047;-74
2022/02/25 01:06:38;;;;;;;1.13;0.20;;;3.30;91.40;;;;;;5036738;28;20044;-74
2022/02/25 01:09:05;;;;;;;4.63;0.80;;;3.30;91.40;;;;;;5071914;28;20049;-74
2022/02/25 01:11:32;;;;;;;1.85;0.50;;;3.30;91.40;;;;;;5056681;28;20082;-74
2022/02/25 01:13:59;;;;;;;3.63;0.30;;;3.20;91.30;;;;;;5056974;28;20066;-74
2022/02/25 01:16:26;;;;;;;4.38;0.47;;;3.20;91.40;;;;;;5074686;28;20068;-73
2022/02/25 01:18:53;;;;;;;3.35;0.55;;;3.20;91.40;;;;;;5040371;28;20268;-74
2022/02/25 01:21:20;;;;;;;3.23;0.40;;;3.10;91.40;;;;;;5074567;28;20489;-73
2022/02/25 01:23:47;;;;;;;2.33;0.82;;;3.10;91.40;;;;;;5040397;28;20052;-74
2022/02/25 01:26:14;;;;;;;3.50;0.50;;;3.00;91.40;;;;;;5039961;28;20072;-73
2022/02/25 01:28:46;;;;;;;2.05;0.40;;;3.00;91.40;;;;;;5057182;28;20067;-74
2022/02/25 01:31:13;;;;;;;3.30;0.57;;;3.00;91.50;;;;;;5056402;28;20116;-73
2022/02/25 01:33:41;;;;;;;3.47;0.50;;;3.00;91.50;;;;;;5053035;28;20065;-73
2022/02/25 01:36:08;;;;;;;2.05;0.38;;;2.90;91.50;;;;;;5020294;28;20053;-73
2022/02/25 01:38:35;;;;;;;3.33;0.50;;;2.90;91.50;;;;;;5054257;28;20116;-73
2022/02/25 01:41:02;;;;;;;2.33;0.47;;;2.90;91.50;;;;;;5054267;28;20049;-73
2022/02/25 01:43:29;;;;;;;3.43;0.60;;;2.80;91.50;;;;;;5021534;28;20045;-79
2022/02/25 01:45:56;;;;;;;3.35;0.60;;;2.80;91.50;;;;;;5055193;28;20064;-79
2022/02/25 01:48:24;;;;;;;3.90;0.60;;;2.80;91.50;;;;;;5055415;28;20044;-79
2022/02/25 01:50:51;;;;;;;2.80;0.50;;;2.80;91.50;;;;;;5055037;28;20060;-80
2022/02/25 01:53:20;;;;;;;3.57;0.57;;;2.80;91.50;;;;;;5037192;28;20041;-79
2022/02/25 01:55:47;;;;;;;1.30;0.30;;;2.70;91.60;;;;;;5026933;28;20043;-79
2022/02/25 01:58:16;;;;;;;4.10;0.60;;;2.70;91.60;;;;;;5037662;28;20041;-79
2022/02/25 02:00:44;;;;;;;5.67;0.90;;;2.70;91.60;;;;;;5055164;28;20063;-79
2022/02/25 02:03:12;;;;;;;2.53;0.53;;;2.60;91.60;;;;;;5020967;28;20106;-79
2022/02/25 02:05:39;;;;;;;3.07;0.63;;;2.70;91.70;;;;;;5021046;28;20052;-80
2022/02/25 02:08:07;;;;;;;3.47;0.80;;;2.60;91.70;;;;;;5021130;28;20048;-80
2022/02/25 02:10:34;;;;;;;3.30;0.90;;;2.60;91.70;;;;;;5021420;28;20045;-80
2022/02/25 02:13:01;;;;;;;3.10;0.97;;;2.70;91.70;;;;;;5039396;28;20049;-80
2022/02/25 02:15:29;;;;;;;2.73;1.00;;;2.60;91.70;;;;;;5020130;28;20048;-80
2022/02/25 02:17:56;;;;;;;2.27;0.93;;;2.70;91.70;;;;;;5036879;28;20383;-80
2022/02/25 02:20:23;;;;;;;4.53;1.30;;;2.70;91.70;;;;;;5054331;28;20126;-80
2022/02/25 02:22:50;;;;;;;3.40;1.20;;;2.70;91.70;;;;;;5036557;28;20041;-80
2022/02/25 02:25:17;;;;;;;4.43;1.67;;;2.70;91.70;;;;;;5036709;28;20477;-79
2022/02/25 02:30:30;;;;;;;5.23;1.33;;;2.70;91.70;;;;;;5054161;28;20119;-80
2022/02/25 02:32:58;;;;;;;3.45;1.00;;;2.70;91.70;;;;;;5020518;28;20139;-80
2022/02/25 02:35:25;;;;;;;3.72;1.27;;;2.70;91.70;;;;;;5053873;28;20092;-80
2022/02/25 02:37:52;;;;;;;3.77;1.40;;;2.70;91.70;;;;;;5056301;28;20366;-79
2022/02/25 02:40:19;;;;;;;3.47;1.50;;;2.70;91.70;;;;;;5055889;28;20048;-80
2022/02/25 02:42:47;;;;;;;8.90;1.80;;;2.70;91.70;;;;;;5073431;28;20091;-73
2022/02/25 02:45:15;;;;;;;5.57;1.77;;;2.70;91.70;;;;;;5072950;28;20044;-73
2022/02/25 02:47:49;;;;;;;3.58;1.67;;;2.70;91.70;;;;;;5040788;28;20055;-74
2022/02/25 02:50:17;;;;;;;4.90;1.55;;;2.70;91.70;;;;;;5055114;28;20439;-74
2022/02/25 02:52:44;;;;;;;4.37;1.50;;;2.70;91.70;;;;;;5054786;28;20070;-73
2022/02/25 02:55:11;;;;;;;6.13;1.87;;;2.80;91.70;;;;;;5054856;28;20481;-73
2022/02/25 02:57:39;;;;;;;4.77;1.57;;;2.70;91.70;;;;;;5072833;28;20431;-73
2022/02/25 03:00:07;;;;;;;7.82;1.88;;;2.70;91.70;;;;;;5054974;28;20094;-73
2022/02/25 03:02:34;;;;;;;8.57;1.70;;;2.70;91.70;;;;;;5072659;28;20090;-73
2022/02/25 03:05:02;;;;;;;3.67;1.30;;;2.80;91.70;;;;;;5038051;28;20048;-73
2022/02/25 03:07:28;;;;;;;3.63;1.20;;;2.70;91.70;;;;;;5054978;28;20044;-73
2022/02/25 03:09:55;;;;;;;4.68;1.30;;;2.70;91.70;;;;;;5037847;28;20554;-74
2022/02/25 03:12:23;;;;;;;6.47;1.33;;;2.70;91.70;;;;;;5038346;28;20040;-74
2022/02/25 03:14:51;;;;;;;8.07;2.57;;;2.70;91.80;;;;;;5038523;28;20049;-73
2022/02/25 03:17:21;;;;;;;3.53;1.30;;;2.70;91.80;;;;;;5054617;28;20039;-74
2022/02/25 03:19:48;;;;;;;6.50;1.90;;;2.70;91.80;;;;;;5037822;28;20047;-73
2022/02/25 03:22:17;;;;;;;4.50;1.73;;;2.70;91.80;;;;;;5037922;28;20044;-73
2022/02/25 03:24:55;;;;;;;7.90;2.30;;;2.70;91.70;;;;;;5039257;28;20143;-74
2022/02/25 03:27:24;;;;;;;3.50;1.20;;;2.70;91.70;;;;;;5072095;28;20059;-74
2022/02/25 03:29:52;;;;;;;4.17;1.70;;;2.80;91.70;;;;;;5072276;28;20045;-74
2022/02/25 03:32:19;;;;;;;5.33;1.40;;;2.80;91.70;;;;;;5054115;28;20036;-74
2022/02/25 03:34:47;;;;;;;2.27;1.13;;;2.80;91.70;;;;;;5038048;28;20473;-74
2022/02/25 03:37:18;;;;;;;2.93;1.40;;;2.80;91.70;;;;;;5072156;28;20051;-74
2022/02/25 03:39:46;;;;;;;6.23;1.40;;;2.80;91.70;;;;;;5072060;28;20047;-74
2022/02/25 03:42:13;;;;;;;3.60;1.20;;;2.70;91.70;;;;;;5021207;28;20040;-74
2022/02/25 03:44:47;;;;;;;4.38;1.60;;;2.80;91.70;;;;;;5055142;28;20052;-80
2022/02/25 03:47:15;;;;;;;5.53;1.40;;;2.80;91.70;;;;;;5038441;28;20059;-80
2022/02/25 03:49:43;;;;;;;2.97;1.30;;;2.80;91.70;;;;;;5055310;28;20395;-80
2022/02/25 03:52:10;;;;;;;5.30;1.60;;;2.80;91.70;;;;;;5072797;28;20048;-79
2022/02/25 03:54:37;;;;;;;6.87;1.50;;;2.80;91.70;;;;;;5055297;28;20500;-80
2022/02/25 03:57:04;;;;;;;2.65;0.90;;;2.80;91.70;;;;;;5072798;28;20390;-80
2022/02/25 03:59:31;;;;;;;5.60;1.10;;;2.70;91.70;;;;;;5054840;28;20493;-80
2022/02/25 04:01:58;;;;;;;5.53;1.58;;;2.70;91.70;;;;;;5038218;28;20462;-80
2022/02/25 04:04:27;;;;;;;8.07;1.90;;;2.70;91.70;;;;;;5055108;28;20540;-80
2022/02/25 04:06:54;;;;;;;5.17;1.37;;;2.70;91.70;;;;;;5071260;28;20771;-80
2022/02/25 04:09:22;;;;;;;3.43;1.00;;;2.70;91.70;;;;;;5054363;28;20106;-80
2022/02/25 04:11:51;;;;;;;3.83;1.23;;;2.70;91.70;;;;;;5054633;28;20071;-80
2022/02/25 04:14:22;;;;;;;6.97;1.50;;;2.70;91.70;;;;;;5054312;28;20754;-80
2022/02/25 04:16:50;;;;;;;4.18;1.58;;;2.70;91.80;;;;;;5054302;28;20131;-80
2022/02/25 04:19:20;;;;;;;3.77;1.30;;;2.70;91.80;;;;;;5072481;28;20102;-80
2022/02/25 04:21:47;;;;;;;4.30;1.02;;;2.70;92.00;;;;;;5054813;28;20048;-80
2022/02/25 04:24:15;;;;;;;5.33;1.30;;;2.70;91.80;;;;;;5037988;28;20408;-79
2022/02/25 04:26:45;;;;;;;4.33;1.57;;;2.70;91.70;;;;;;5054928;28;20055;-80
2022/02/25 04:29:12;;;;;;;5.77;1.13;;;2.70;91.70;;;;;;5054598;28;20086;-79
2022/02/25 04:31:40;;;;;;;4.90;0.97;;;2.70;91.70;;;;;;5054593;28;20068;-80
2022/02/25 04:34:07;;;;;;;3.27;1.23;;;2.70;91.70;;;;;;5065400;28;20691;-80
2022/02/25 04:36:36;;;;;;;3.87;1.00;;;2.70;91.70;;;;;;5018456;28;20401;-80
2022/02/25 04:39:05;;;;;;;3.73;1.00;;;2.60;91.70;;;;;;5034389;28;20045;-80
2022/02/25 04:41:35;;;;;;;4.73;1.07;;;2.70;91.80;;;;;;5052250;28;20045;-79
2022/02/25 04:44:05;;;;;;;5.17;1.20;;;2.60;91.80;;;;;;5019871;28;20294;-80
2022/02/25 04:46:32;;;;;;;6.07;1.00;;;2.70;91.80;;;;;;5056233;28;20132;-80
2022/02/25 04:48:59;;;;;;;5.57;1.47;;;2.60;91.80;;;;;;5005802;28;20044;-80
2022/02/25 04:51:26;;;;;;;3.43;1.03;;;2.70;91.80;;;;;;5055874;28;20447;-79
2022/02/25 04:53:53;;;;;;;3.13;0.90;;;2.70;91.80;;;;;;5038604;28;20041;-79
2022/02/25 04:56:21;;;;;;;3.53;0.67;;;2.70;91.80;;;;;;5022418;28;20044;-80
2022/02/25 04:58:48;;;;;;;3.53;0.80;;;2.70;91.80;;;;;;5038138;28;20041;-80
2022/02/25 05:01:15;;;;;;;3.57;0.70;;;2.70;91.80;;;;;;5038280;28;20405;-79
2022/02/25 05:03:43;;;;;;;3.97;0.60;;;2.70;91.80;;;;;;5038275;28;20053;-80
2022/02/25 05:06:10;;;;;;;5.60;0.90;;;2.60;91.80;;;;;;5055859;28;20436;-80
2022/02/25 05:08:37;;;;;;;4.50;1.00;;;2.60;91.80;;;;;;5038286;28;20041;-80
2022/02/25 05:11:04;;;;;;;5.73;1.00;;;2.60;91.90;;;;;;5038072;28;20060;-80
2022/02/25 05:13:31;;;;;;;4.70;0.77;;;2.60;91.90;;;;;;5055773;28;20151;-80
2022/02/25 05:21:30;;;;;;;3.67;1.13;;;2.60;92.00;;;;;;5055941;28;20045;-80
2022/02/25 05:23:57;;;;;;;4.73;1.30;;;2.60;91.90;;;;;;5055907;28;20048;-80
2022/02/25 05:26:25;;;;;;;9.43;1.83;;;2.60;91.90;;;;;;5055624;28;20048;-80
2022/02/25 05:28:52;;;;;;;8.70;1.60;;;2.70;91.90;;;;;;5055892;28;20132;-80
2022/02/25 05:31:19;;;;;;;5.27;1.00;;;2.70;91.90;;;;;;5038556;28;20394;-80
2022/02/25 05:33:47;;;;;;;5.50;1.63;;;2.70;91.90;;;;;;5042619;28;20051;-80
2022/02/25 05:36:15;;;;;;;6.67;1.83;;;2.70;91.90;;;;;;5058805;28;20078;-80
2022/02/25 05:38:42;;;;;;;6.37;1.00;;;2.80;91.90;;;;;;5058267;28;20052;-80
2022/02/25 05:41:09;;;;;;;4.30;0.83;;;2.80;92.10;;;;;;5060171;28;20056;-79
2022/02/25 05:43:36;;;;;;;7.03;1.10;;;2.80;91.90;;;;;;5061652;28;20636;-80
2022/02/25 05:46:03;;;;;;;5.97;1.40;;;2.90;91.90;;;;;;5063237;28;20434;-79
2022/02/25 05:48:30;;;;;;;5.30;1.50;;;2.90;91.80;;;;;;5045937;28;20045;-80
2022/02/25 05:50:57;;;;;;;6.80;1.40;;;2.90;91.80;;;;;;5075514;28;20056;-80
2022/02/25 05:53:24;;;;;;;7.50;1.00;;;2.90;91.80;;;;;;5095334;28;20456;-80
2022/02/25 05:55:53;;;;;;;6.33;1.23;;;3.00;91.80;;;;;;5060160;28;20048;-79
2022/02/25 05:58:20;;;;;;;4.37;1.00;;;2.90;91.80;;;;;;5043894;28;20400;-80
2022/02/25 06:00:47;;;;;;;6.83;0.93;;;3.00;91.90;;;;;;5044087;28;20097;-80
2022/02/25 06:03:15;;;;;;;5.07;1.25;;;3.00;91.80;;;;;;5077223;28;20118;-80
2022/02/25 06:05:43;;;;;;;4.90;0.90;;;3.00;91.80;;;;;;5060906;28;20050;-80
2022/02/25 06:08:10;;;;;;;6.32;1.20;;;3.00;91.90;;;;;;5077155;28;20048;-80
2022/02/25 06:10:37;;;;;;;4.93;1.20;;;3.00;91.90;;;;;;5077046;28;20058;-80
2022/02/25 06:13:04;;;;;;;6.73;1.10;;;3.10;91.90;;;;;;5060187;28;20399;-80
2022/02/25 06:15:31;;;;;;;7.15;1.30;;;3.20;91.90;;;;;;5060358;28;20094;-80
2022/02/25 06:17:59;;;;;;;5.95;1.45;;;3.20;91.80;;;;;;5076462;28;20054;-80
2022/02/25 06:20:26;;;;;;;4.73;1.00;;;3.30;91.80;;;;;;5077039;28;20044;-80
2022/02/25 06:22:54;;;;;;;4.50;0.93;;;3.40;91.70;;;;;;5094167;28;20126;-74
2022/02/25 06:25:20;;;;;;;5.60;1.10;;;3.40;91.70;;;;;;5058890;28;20097;-74
2022/02/25 06:27:47;;;;;;;4.45;0.93;;;3.40;91.70;;;;;;5093787;28;20430;-74
2022/02/25 06:30:15;;;;;;;6.38;1.00;;;3.40;91.70;;;;;;5075901;28;20549;-74
2022/02/25 06:32:45;;;;;;;8.80;1.60;;;3.40;91.80;;;;;;5075946;28;20040;-74
2022/02/25 06:35:13;;;;;;;6.35;1.02;;;3.40;91.80;;;;;;5075143;28;20060;-74
2022/02/25 06:37:40;;;;;;;11.67;1.53;;;3.40;91.90;;;;;;5093554;28;20068;-75
2022/02/25 06:40:09;;;;;;;9.13;1.90;;;3.40;92.00;;;;;;5075551;28;20469;-74
2022/02/25 06:42:38;;;;;;;8.43;1.57;;;3.40;92.10;;;;;;5075537;28;20040;-74
2022/02/25 06:45:14;;;;;;;10.63;1.70;;;3.40;92.10;;;;;;5093600;28;20430;-74
2022/02/25 06:47:44;;;;;;;5.53;0.95;;;3.40;92.20;;;;;;5075910;28;20047;-74
2022/02/25 06:50:12;;;;;;;8.43;2.53;;;3.40;92.20;;;;;;5075656;28;20129;-74
2022/02/25 06:52:39;;;;;;;6.20;1.65;;;3.40;92.60;;;;;;5074853;28;20071;-74
2022/02/25 06:55:11;;;;;;;12.53;1.60;;;3.40;92.50;;;;;;5093033;28;20044;-74
2022/02/25 06:58:00;;;;;;;9.23;1.53;;;3.40;92.60;;;;;;5078188;28;20400;-74
2022/02/25 07:00:27;;;;;;;4.65;1.38;;;3.50;92.80;;;;;;5093177;28;20412;-74
2022/02/25 07:02:56;;;;;;;6.88;1.65;;;3.50;92.80;;;;;;5074468;28;20054;-79
2022/02/25 07:05:30;;;;;;;7.53;1.90;;;3.50;92.80;;;;;;5075789;28;20072;-80
2022/02/25 07:08:07;;;;;;;6.97;1.50;;;3.50;93.10;;;;;;5075107;28;20055;-79
2022/02/25 07:10:35;;;;;;;8.20;1.90;;;3.50;93.00;;;;;;5075782;28;20051;-80
2022/02/25 07:13:05;;;;;;;7.47;1.90;;;3.50;93.20;;;;;;5059054;28;20036;-79
2022/02/25 07:15:33;;;;;;;8.23;1.40;;;3.50;93.20;;;;;;5076046;28;20044;-80
2022/02/25 07:18:00;;;;;;;7.53;2.00;;;3.50;93.30;;;;;;5093612;28;20068;-81
2022/02/25 07:20:28;;;;;;;8.95;1.92;;;3.50;93.40;;;;;;5075847;28;20070;-79
2022/02/25 07:22:57;;;;;;;6.03;1.90;;;3.60;93.50;;;;;;5075755;28;20406;-80
2022/02/25 07:25:24;;;;;;;5.60;2.35;;;3.60;93.40;;;;;;5058461;28;20044;-80
2022/02/25 07:27:51;;;;;;;8.82;2.17;;;3.60;93.50;;;;;;5058849;28;20039;-82
2022/02/25 07:30:20;;;;;;;7.32;1.65;;;3.70;93.50;;;;;;5046553;28;20048;-82
2022/02/25 07:32:47;;;;;;;12.50;2.65;;;3.70;93.50;;;;;;5055193;28;20029;-83
2022/02/25 07:35:15;;;;;;;8.38;1.63;;;3.70;93.50;;;;;;5043899;28;20051;-82
2022/02/25 07:37:42;;;;;;;10.63;1.88;;;3.80;93.60;;;;;;5041674;28;20036;-85
2022/02/25 07:40:12;;;;;;;6.45;1.85;;;3.80;93.60;;;;;;5038649;28;20044;-83
2022/02/25 07:42:41;;;;;;;9.82;1.88;;;3.90;93.60;;;;;;5022299;28;20049;-84
2022/02/25 07:45:09;;;;;;;4.97;1.50;;;3.90;93.60;;;;;;5038686;28;20167;-86
2022/02/25 07:47:38;;;;;;;7.82;2.38;;;3.90;93.60;;;;;;5055435;28;20052;-81
2022/02/25 07:50:09;;;;;;;5.63;2.38;;;4.00;93.60;;;;;;5054929;28;20063;-84
2022/02/25 07:52:37;;;;;;;5.33;1.57;;;4.00;93.70;;;;;;5038591;28;20041;-85
2022/02/25 07:55:06;;;;;;;7.28;1.80;;;4.00;93.70;;;;;;5022082;28;20289;-84
2022/02/25 07:57:35;;;;;;;6.30;1.85;;;4.00;93.70;;;;;;5055135;28;20169;-83
2022/02/25 08:00:21;;;;;;;7.07;1.42;;;4.00;93.70;;;;;;5040809;28;20053;-83
2022/02/25 08:02:48;;;;;;;7.63;1.63;;;4.10;93.80;;;;;;5022330;28;20052;-82
2022/02/25 08:05:19;;;;;;;8.93;1.77;;;4.10;93.80;;;;;;5006046;28;20058;-82
2022/02/25 08:07:45;;;;;;;7.13;1.20;;;4.10;93.90;;;;;;5038550;28;20106;-83
2022/02/25 08:10:13;;;;;;;4.13;1.38;;;4.10;93.80;;;;;;5038582;28;20055;-83
2022/02/25 08:12:42;;;;;;;9.38;1.52;;;4.20;93.80;;;;;;5021945;28;20515;-82
2022/02/25 08:15:10;;;;;;;5.07;1.98;;;4.20;93.80;;;;;;5022752;28;20060;-81
2022/02/25 08:17:38;;;;;;;5.85;1.95;;;4.30;93.90;;;;;;5072777;28;20033;-85
2022/02/25 08:20:06;;;;;;;7.57;1.60;;;4.30;93.90;;;;;;5038425;28;20497;-82
2022/02/25 08:22:33;;;;;;;8.52;1.25;;;4.40;93.90;;;;;;5038289;28;20044;-82
2022/02/25 08:25:02;;;;;;;4.18;1.50;;;4.50;93.90;;;;;;5038126;28;20143;-83
2022/02/25 08:27:29;;;;;;;5.53;1.00;;;4.60;93.90;;;;;;5021932;28;20515;-83
2022/02/25 08:29:56;;;;;;;6.47;1.00;;;4.60;93.80;;;;;;5037905;28;20048;-83
2022/02/25 08:32:24;;;;;;;11.20;1.65;;;4.70;93.80;;;;;;5038022;28;20033;-83
2022/02/25 08:34:51;;;;;;;12.10;2.13;;;4.80;93.80;;;;;;5053934;28;20377;-77
2022/02/25 08:37:19;;;;;;;6.37;1.83;;;4.90;93.70;;;;;;5021474;28;20067;-77
2022/02/25 08:39:46;;;;;;;8.52;0.98;;;5.10;93.70;;;;;;5021798;28;20056;-79
2022/02/25 08:42:14;;;;;;;8.07;1.70;;;5.20;93.60;;;;;;5054659;28;20056;-78
2022/02/25 08:44:45;;;;;;;8.68;1.73;;;5.30;93.50;;;;;;5038516;28;20052;-79
2022/02/25 08:47:12;;;;;;;9.38;1.15;;;5.50;93.40;;;;;;5022037;28;20047;-78
2022/02/25 08:49:39;;;;;;;7.45;0.98;;;5.50;93.20;;;;;;5038137;28;20048;-78
2022/02/25 08:52:10;;;;;;;5.53;1.35;;;5.60;93.10;;;;;;5037877;28;20052;-77
2022/02/25 08:54:40;;;;;;;8.68;1.77;;;5.70;93.10;;;;;;5039039;28;20044;-77
2022/02/25 08:57:07;;;;;;;3.88;1.15;;;5.80;93.00;;;;;;5037712;28;20048;-77
2022/02/25 08:59:35;;;;;;;12.63;1.42;;;5.80;93.00;;;;;;5053891;28;20044;-78
2022/02/25 09:02:02;;;;;;;11.38;1.42;;;5.80;92.90;;;;;;5037655;28;20071;-77
2022/02/25 09:04:29;;;;;;;5.63;2.10;;;5.90;92.90;;;;;;5037423;28;20044;-77
2022/02/25 09:06:57;;;;;;;7.05;0.80;;;5.90;92.80;;;;;;5071718;28;20399;-76
2022/02/25 09:09:24;;;;;;;4.13;1.00;;;6.00;92.70;;;;;;5037513;28;20068;-77
2022/02/25 09:11:51;;;;;;;7.07;1.50;;;6.10;92.50;;;;;;5037573;28;20044;-77
2022/02/25 09:14:19;;;;;;;10.88;1.50;;;6.30;92.70;;;;;;5021177;28;20044;-78
2022/02/25 09:16:47;;;;;;;9.23;1.40;;;6.40;92.30;;;;;;5054165;28;20086;-76
2022/02/25 09:19:14;;;;;;;7.25;1.60;;;6.50;92.20;;;;;;5021238;28;20049;-77
2022/02/25 09:21:41;;;;;;;5.40;1.00;;;6.60;92.10;;;;;;5027710;28;20481;-75
2022/02/25 09:24:08;;;;;;;4.95;1.52;;;6.70;92.00;;;;;;5055486;28;20072;-74
2022/02/25 09:26:35;;;;;;;6.20;0.82;;;6.70;91.90;;;;;;5053473;28;20047;-75
2022/02/25 09:29:03;;;;;;;5.47;1.08;;;6.90;91.80;;;;;;5037120;28;20040;-75
2022/02/25 09:31:30;;;;;;;9.00;1.50;;;7.00;91.70;;;;;;5074055;28;20400;-75
2022/02/25 09:33:57;;;;;;;5.55;0.90;;;7.20;91.40;;;;;;5055043;28;20044;-74
2022/02/25 09:36:25;;;;;;;5.50;1.25;;;7.30;91.00;;;;;;5020581;28;20485;-75
2022/02/25 09:38:56;;;;;;;10.55;1.05;;;7.40;90.80;;;;;;5020690;28;20045;-75
2022/02/25 09:41:23;;;;;;;7.97;1.10;;;7.40;90.40;;;;;;5021797;28;20065;-80
2022/02/25 09:43:51;;;;;;;4.97;1.30;;;7.40;90.00;;;;;;5054472;28;20094;-80
2022/02/25 09:46:18;;;;;;;4.78;0.93;;;7.40;89.70;;;;;;5037259;28;20044;-80
2022/02/25 09:48:45;;;;;;;7.70;1.00;;;7.30;89.10;;;;;;5037513;28;20124;-81
2022/02/25 09:51:13;;;;;;;5.32;1.30;;;7.00;89.00;;;;;;5021214;28;20068;-79
2022/02/25 09:53:40;;;;;;;8.48;1.13;;;6.70;88.80;;;;;;5021200;28;20033;-80
2022/02/25 09:56:07;;;;;;;7.05;1.23;;;6.60;89.50;;;;;;5020755;28;20083;-81
2022/02/25 09:58:37;;;;;;;9.38;1.08;;;6.50;90.00;;;;;;5037611;28;20047;-80
2022/02/25 10:01:04;;;;;;;8.13;1.70;;;6.50;90.20;;;;;;5020698;28;20083;-80
2022/02/25 10:03:35;;;;;;;6.82;1.45;;;6.50;90.20;;;;;;5020848;28;20087;-75
2022/02/25 10:06:06;;;;;;;6.07;0.82;;;6.50;90.30;;;;;;5053947;28;20437;-74
2022/02/25 10:08:34;;;;;;;7.57;0.93;;;6.50;90.30;;;;;;5019699;28;20386;-75
2022/02/25 10:11:02;;;;;;;7.47;1.27;;;6.50;90.30;;;;;;5036227;28;20064;-78
2022/02/25 10:13:30;;;;;;;6.15;0.90;;;6.50;90.40;;;;;;5037013;28;20401;-77
2022/02/25 10:16:18;;;;;;;11.07;1.20;;;6.50;90.40;;;;;;5039672;28;20397;-77
2022/02/25 10:18:46;;;;;;;3.95;1.17;;;6.50;90.50;;;;;;5020696;28;20053;-76
2022/02/25 10:21:16;;;;;;;5.80;0.88;;;6.50;90.50;;;;;;5036442;28;20068;-76
2022/02/25 10:23:46;;;;;;;5.32;0.80;;;6.60;90.50;;;;;;5020195;28;20406;-73
2022/02/25 10:26:21;;;;;;;6.20;1.23;;;6.80;90.50;;;;;;5052524;28;20094;-73
2022/02/25 10:28:50;;;;;;;5.93;1.08;;;6.90;90.30;;;;;;5055760;28;20068;-73
2022/02/25 10:31:22;;;;;;;7.85;1.10;;;7.00;90.30;;;;;;5055484;28;20489;-73
2022/02/25 10:34:04;;;;;;;6.43;1.15;;;7.00;90.10;;;;;;5053017;28;20130;-73
2022/02/25 10:36:44;;;;;;;7.65;1.05;;;7.00;90.10;;;;;;5035623;28;20049;-73
2022/02/25 10:39:19;;;;;;;4.55;0.90;;;7.00;90.10;;;;;;5053446;28;20041;-75
2022/02/25 10:42:05;;;;;;;7.90;1.05;;;7.00;90.30;;;;;;5019580;28;20079;-74
2022/02/25 10:44:46;;;;;;;5.07;1.10;;;6.90;90.00;;;;;;5035367;28;20033;-74
2022/02/25 10:47:24;;;;;;;5.20;1.02;;;6.90;90.20;;;;;;5035574;28;20044;-74
2022/02/25 10:50:05;;;;;;;9.98;1.20;;;6.80;90.20;;;;;;5034841;28;20053;-74
2022/02/25 10:52:38;;;;;;;4.75;1.05;;;6.80;90.30;;;;;;5052856;28;20041;-73
2022/02/25 10:55:10;;;;;;;;;;;6.80;90.40;;;;;;5053177;28;20033;-73
2022/02/25 10:57:37;;;;;;;8.35;1.80;;;6.80;90.40;;;;;;5034876;28;19924;-75
2022/02/25 11:00:09;;;;;;;7.00;1.33;;;6.60;90.40;;;;;;5036057;28;20044;-74
2022/02/25 11:02:38;;;;;;;7.55;0.93;;;6.40;90.50;;;;;;5019288;28;20399;-74
2022/02/25 11:05:11;;;;;;;6.32;1.00;;;6.20;90.70;;;;;;5053091;28;20069;-75
2022/02/25 11:07:44;;;;;;;8.57;1.20;;;6.00;91.10;;;;;;5035472;28;20059;-74
2022/02/25 11:10:14;;;;;;;12.20;1.55;;;5.90;91.30;;;;;;5035471;28;20463;-75
2022/02/25 11:12:43;;;;;;;6.43;1.10;;;5.90;91.50;;;;;;5035482;28;20127;-76
2022/02/25 11:15:17;;;;;;;6.78;1.02;;;5.90;91.70;;;;;;5035499;28;20049;-75
2022/02/25 11:17:47;;;;;;;9.50;1.17;;;5.90;91.70;;;;;;5035478;28;20049;-76
2022/02/25 11:20:31;;;;;;;6.60;0.90;;;5.90;91.80;;;;;;5035034;28;20077;-74
2022/02/25 11:22:59;;;;;;;5.32;0.75;;;5.80;91.70;;;;;;5018584;28;20045;-81
2022/02/25 11:25:28;;;;;;;4.68;0.60;;;5.70;91.80;;;;;;5020005;28;20052;-80
2022/02/25 11:28:03;;;;;;;6.45;1.23;;;5.70;91.90;;;;;;5036170;28;20401;-81
2022/02/25 11:30:39;;;;;;;4.13;0.47;;;5.60;92.00;;;;;;5035667;28;20094;-81
2022/02/25 11:33:19;;;;;;;3.30;0.50;;;5.70;92.00;;;;;;5018344;28;20501;-81
2022/02/25 11:35:51;;;;;;;5.10;0.85;;;5.70;92.00;;;;;;5051624;28;20106;-81
2022/02/25 11:38:34;;;;;;;7.30;0.80;;;5.70;92.00;;;;;;5055443;28;20044;-80
2022/02/25 11:41:19;;;;;;;5.28;1.50;;;5.80;92.00;;;;;;5038697;28;20056;-74
2022/02/25 11:43:51;;;;;;;6.43;0.90;;;5.70;92.00;;;;;;5054157;28;20040;-73
2022/02/25 11:46:23;;;;;;;5.13;0.63;;;5.70;92.00;;;;;;5037860;28;20052;-74
2022/02/25 11:48:56;;;;;;;4.30;0.90;;;5.70;92.10;;;;;;5072630;28;20048;-74
2022/02/25 11:51:34;;;;;;;4.93;0.90;;;5.80;92.20;;;;;;5040479;28;20048;-74
2022/02/25 11:56:59;;;;;;;3.80;0.80;;;6.00;92.10;;;;;;5074194;28;20862;-73
2022/02/25 11:59:32;;;;;;;4.78;0.60;;;6.00;92.00;;;;;;5061815;28;20040;-73
2022/02/25 12:02:08;;;;;;;6.95;1.13;;;6.00;91.90;;;;;;5077640;28;20071;-74
2022/02/25 12:04:40;;;;;;;9.38;1.55;;;5.90;92.00;;;;;;5041049;28;20488;-73
2022/02/25 12:07:12;;;;;;;9.52;0.93;;;5.90;92.30;;;;;;5051784;28;20416;-74
2022/02/25 12:09:52;;;;;;;8.43;0.77;;;5.80;92.20;;;;;;5048763;28;20044;-75
2022/02/25 12:12:22;;;;;;;6.80;0.60;;;5.70;92.30;;;;;;5049345;28;20412;-79
2022/02/25 12:15:22;;;;;;;10.20;0.98;;;5.70;92.40;;;;;;5082315;28;20060;-80
2022/02/25 12:17:56;;;;;;;8.30;1.08;;;5.80;92.50;;;;;;5082440;28;20044;-78
2022/02/25 12:20:45;;;;;;;7.05;0.93;;;5.90;92.60;;;;;;5078371;28;20041;-80
2022/02/25 12:23:15;;;;;;;7.22;1.10;;;6.10;92.60;;;;;;5063036;28;20082;-79
2022/02/25 12:25:52;;;;;;;8.35;2.35;;;6.20;92.60;;;;;;5063389;28;20044;-80
2022/02/25 12:28:28;;;;;;;8.88;1.70;;;6.40;92.50;;;;;;5045694;28;20043;-79
2022/02/25 12:31:14;;;;;;;10.18;1.58;;;6.40;92.40;;;;;;5064397;28;20497;-79
2022/02/25 12:33:45;;;;;;;7.35;0.98;;;6.50;92.30;;;;;;5062999;28;20118;-80
2022/02/25 12:36:32;;;;;;;6.40;1.33;;;6.40;92.30;;;;;;5061488;28;20500;-80
2022/02/25 12:39:02;;;;;;;7.95;0.98;;;6.40;92.30;;;;;;5059196;28;20372;-74
2022/02/25 12:41:44;;;;;;;4.90;0.85;;;6.40;92.40;;;;;;5061294;28;20036;-73
2022/02/25 12:44:24;;;;;;;8.45;1.63;;;6.40;92.30;;;;;;5059401;28;20040;-73
2022/02/25 12:46:56;;;;;;;5.57;1.15;;;6.50;92.20;;;;;;5062015;28;20543;-74
2022/02/25 12:49:29;;;;;;;8.85;0.95;;;6.60;92.20;;;;;;5078809;28;20341;-79
2022/02/25 12:52:02;;;;;;;7.35;0.80;;;6.60;92.10;;;;;;5060882;28;20044;-78
2022/02/25 12:54:31;;;;;;;9.60;1.17;;;6.70;92.10;;;;;;5065300;28;20036;-78
2022/02/25 12:57:01;;;;;;;10.82;1.60;;;6.70;92.10;;;;;;5045938;28;20044;-80
2022/02/25 12:59:33;;;;;;;9.23;1.10;;;6.80;91.90;;;;;;5063525;28;20525;-80
2022/02/25 13:02:09;;;;;;;9.40;1.15;;;6.80;91.70;;;;;;5077650;28;20456;-79
2022/02/25 13:04:48;;;;;;;8.35;1.83;;;6.90;91.60;;;;;;5064980;28;20082;-79
2022/02/25 13:07:21;;;;;;;7.05;1.17;;;7.10;91.60;;;;;;5068530;28;20102;-79
2022/02/25 13:09:48;;;;;;;11.98;2.05;;;7.10;91.50;;;;;;5063707;28;20050;-78
2022/02/25 13:12:20;;;;;;;8.32;1.40;;;7.30;91.30;;;;;;5050330;28;20139;-79
2022/02/25 13:14:53;;;;;;;7.85;0.82;;;7.40;91.30;;;;;;5061586;28;20041;-80
2022/02/25 13:17:24;;;;;;;8.65;1.70;;;7.60;91.10;;;;;;5089667;28;20036;-80
2022/02/25 13:19:57;;;;;;;8.00;1.25;;;7.80;90.60;;;;;;5059857;28;20466;-75